Latest Weather Observations for Centre Island

IDD60801

Issued at 11:05 am CST Wednesday 23 July 2014 (issued every 30 minutes, with the page automatically refreshed every 10 minutes)

About weather observations | Map of weather stations | Latest weather observations for NT | Other Formats
Station Details ID: 014703 Name: CENTRE ISLAND Lat: -15.74 Lon: 136.82 Height: 12.2 m
Data from the previous 72 hours. | See also: Recent months at Centre Island
Date/Time
CST
Temp
°C
App
Temp
°C
Dew
Point
Rel
Hum
%
Delta-T
°C
Wind Press
QNH
hPa
Press
MSL
hPa
Rain
since 9 am
mm
Dir
 
Spd
km/h
Gust
km/h
Spd
kts
Gust
kts
23/11:00am 22.6 21.7 12.5 53 5.7 SW 9 13 5 7 1016.3 - 0.2
23/10:30am 21.5 19.7 12.1 55 5.3 SSW 13 15 7 8 1016.5 1016.5 0.2
23/10:00am 21.2 19.4 12.1 56 5.1 WSW 13 15 7 8 1016.8 - 0.2
23/09:30am 20.6 19.0 11.5 56 5.0 SW 11 13 6 7 1017.1 1017.1 0.0
23/09:00am 19.6 17.6 10.3 55 5.0 SSW 11 15 6 8 1017.0 1017.0 0.0
23/08:30am 18.5 16.0 9.6 56 4.7 SSW 13 15 7 8 1016.9 1016.9 0.0
23/08:00am 17.5 15.0 9.7 60 4.1 SSW 13 15 7 8 1016.7 - 0.0
23/07:30am 16.4 14.9 13.1 81 1.8 SW 13 17 7 9 1016.3 1016.3 0.0
23/07:00am 16.2 14.8 14.6 90 0.9 SW 15 20 8 11 1016.0 - 0.0
23/06:30am 16.0 15.2 15.2 95 0.5 SW 13 19 7 10 1015.7 1015.7 0.0
23/06:00am 16.6 15.9 15.5 93 0.6 WSW 13 17 7 9 1015.4 1015.4 0.0
23/05:30am 16.5 15.4 14.2 86 1.3 WSW 13 17 7 9 1015.1 1015.1 0.0
23/05:00am 16.4 15.3 14.2 87 1.3 SW 13 17 7 9 1015.0 - 0.0
23/04:30am 16.4 14.9 14.1 86 1.3 SW 15 19 8 10 1015.0 1015.0 0.0
23/04:00am 17.1 16.9 15.6 91 0.9 SW 11 15 6 8 1015.0 - 0.0
23/03:30am 17.0 16.7 15.5 91 0.9 SW 11 13 6 7 1015.0 1015.0 0.0
23/03:00am 17.6 18.8 16.8 95 0.5 WNW 6 9 3 5 1015.2 1015.2 0.0
23/02:30am 17.2 17.9 16.1 93 0.6 WNW 7 7 4 4 1015.3 1015.3 0.0
23/02:00am 17.2 17.9 16.1 93 0.7 NW 7 9 4 5 1015.3 - 0.0
23/01:30am 17.5 17.9 16.4 93 0.7 NW 9 11 5 6 1015.2 1015.2 0.0
23/01:00am 17.6 18.0 16.3 92 0.8 NNW 9 11 5 6 1015.3 - 0.0
23/12:30am 17.0 17.4 15.2 89 1.0 NNW 7 9 4 5 1015.2 1015.2 0.0
23/12:00am 17.9 18.3 16.2 90 1.0 N 9 9 5 5 1015.1 1015.1 0.0
 
Date/Time
CST
Temp
°C
App
Temp
°C
Dew
Point
Rel
Hum
%
Delta-T
°C
Wind Press
QNH
hPa
Press
MSL
hPa
Rain
since 9 am
mm
Dir
 
Spd
km/h
Gust
km/h
Spd
kts
Gust
kts
22/11:30pm 18.6 19.3 17.1 91 0.9 N 9 11 5 6 1015.2 1015.2 0.0
22/11:00pm 18.6 19.1 16.6 88 1.2 N 9 11 5 6 1015.4 - 0.0
22/10:30pm 19.3 19.7 17.3 88 1.2 NNE 11 13 6 7 1015.3 1015.3 0.0
22/10:00pm 19.6 19.8 16.8 84 1.7 NNE 11 17 6 9 1015.4 - 0.0
22/09:30pm 19.9 19.5 16.3 80 2.2 NE 13 17 7 9 1015.2 1015.2 0.0
22/09:00pm 20.0 19.3 16.4 80 2.2 NE 15 19 8 10 1015.2 1015.2 0.0
22/08:30pm 20.1 19.5 16.7 81 2.1 NNE 15 19 8 10 1015.4 1015.4 0.0
22/08:00pm 20.5 19.0 13.2 63 4.2 NNE 13 17 7 9 1015.3 - 0.0
22/07:30pm 20.9 18.9 11.5 55 5.2 NE 13 17 7 9 1015.0 1015.0 0.0
22/07:00pm 21.2 19.1 11.0 52 5.6 NE 13 17 7 9 1014.8 - 0.0
22/06:30pm 21.9 18.6 9.4 45 6.7 NE 17 22 9 12 1014.6 1014.6 0.0
22/06:00pm 22.4 18.5 9.6 44 6.9 ENE 20 24 11 13 1014.2 1014.2 0.0
22/05:30pm 23.4 19.3 8.7 39 7.9 ENE 20 24 11 13 1014.1 1014.1 0.0
22/05:00pm 24.1 20.5 9.7 40 7.9 ENE 19 24 10 13 1014.2 - 0.0
22/04:30pm 24.5 20.3 9.6 39 8.1 E 22 28 12 15 1014.1 1014.1 0.0
22/04:00pm 24.4 19.9 9.9 40 8.0 E 24 28 13 15 1014.3 - 0.0
22/03:30pm 25.2 21.6 11.7 43 7.7 E 22 28 12 15 1014.5 1014.5 0.0
22/03:00pm 26.2 21.7 10.0 36 9.0 E 24 30 13 16 1014.7 1014.7 0.0
22/02:30pm 26.2 21.6 9.5 35 9.2 ESE 24 30 13 16 1015.1 1015.1 0.0
22/02:00pm 25.7 22.6 11.5 41 8.1 ESE 19 24 10 13 1015.5 - 0.0
22/01:30pm 25.6 20.3 8.6 34 9.2 ESE 26 30 14 16 1015.8 1015.8 0.0
22/01:00pm 25.4 20.6 8.8 35 9.0 E 24 28 13 15 1016.5 - 0.0
22/12:30pm 24.7 22.0 10.2 40 8.0 ESE 15 20 8 11 1017.2 1017.2 0.0
22/12:00pm 23.4 22.8 13.6 54 5.7 ESE 9 11 5 6 1017.8 1017.8 0.0
22/11:30am 23.5 23.3 13.1 52 6.0 SSE 6 7 3 4 1018.1 1018.1 0.0
22/11:00am 21.9 21.5 14.0 61 4.6 S 9 11 5 6 1018.7 - 0.0
22/10:30am 22.0 21.4 14.6 63 4.3 S 11 15 6 8 1018.9 1018.9 0.0
22/10:00am 20.6 19.4 14.0 66 3.8 SSW 13 13 7 7 1019.2 - 0.0
22/09:30am 20.2 18.7 14.1 68 3.5 S 15 19 8 10 1019.2 1019.2 0.0
22/09:00am 19.4 17.1 14.2 72 3.0 S 19 20 10 11 1019.1 1019.1 -
22/08:30am 18.9 16.7 14.8 77 2.4 S 20 24 11 13 1018.8 1018.8 -
22/08:00am 18.1 14.9 14.2 78 2.2 S 24 28 13 15 1018.4 - -
22/07:30am 17.5 15.3 15.0 85 1.4 S 20 24 11 13 1017.9 1017.9 -
22/07:00am 17.2 14.8 15.4 89 1.1 S 22 26 12 14 1017.7 - -
22/06:30am 17.2 15.0 15.9 92 0.8 S 22 26 12 14 1017.3 1017.3 -
22/06:00am 17.2 15.5 16.2 94 0.6 SSE 20 24 11 13 1017.2 1017.2 -
22/05:30am 17.2 15.3 16.6 96 0.4 S 22 24 12 13 1016.8 1016.8 -
22/05:00am 17.4 15.9 16.8 96 0.4 S 20 24 11 13 1016.8 - -
22/04:30am 17.8 17.3 17.0 95 0.5 SSE 15 19 8 10 1016.7 1016.7 -
22/04:00am 18.1 16.9 17.1 94 0.6 SSE 19 22 10 12 1016.7 - -
22/03:30am 18.4 18.5 17.4 94 0.6 S 13 17 7 9 1016.9 1016.9 -
22/03:00am 18.6 19.2 17.6 94 0.6 S 11 15 6 8 1016.9 1016.9 -
22/02:30am 18.7 18.5 17.7 94 0.6 S 15 19 8 10 1017.0 1017.0 -
22/02:00am 19.0 20.1 18.0 94 0.6 S 9 13 5 7 1017.0 - -
22/01:30am 18.9 20.3 17.9 94 0.6 S 7 11 4 6 1017.1 1017.1 -
22/01:00am 19.2 20.4 18.2 94 0.6 S 9 11 5 6 1017.1 - -
22/12:00am 19.9 21.0 18.9 94 0.6 SE 11 13 6 7 1017.4 1017.4 0.0
 
Date/Time
CST
Temp
°C
App
Temp
°C
Dew
Point
Rel
Hum
%
Delta-T
°C
Wind Press
QNH
hPa
Press
MSL
hPa
Rain
since 9 am
mm
Dir
 
Spd
km/h
Gust
km/h
Spd
kts
Gust
kts
21/11:30pm 19.7 20.7 18.7 94 0.6 SE 11 13 6 7 1017.7 1017.7 0.0
21/11:00pm 19.5 20.7 18.3 93 0.7 ESE 9 9 5 5 1017.7 - 0.0
21/10:30pm 19.6 20.8 18.3 92 0.8 E 9 11 5 6 1017.8 1017.8 0.0
21/10:00pm 19.8 20.7 18.3 91 0.9 E 11 13 6 7 1017.8 - 0.0
21/09:30pm 20.1 21.5 18.6 91 0.9 ENE 9 11 5 6 1017.9 1017.9 0.0
21/09:00pm 20.3 21.3 18.6 90 1.1 NE 11 13 6 7 1017.6 1017.6 0.0
21/08:30pm 20.3 21.1 18.1 87 1.4 NNE 11 13 6 7 1017.5 1017.5 0.0
21/08:00pm 20.4 21.1 18.0 86 1.5 NE 11 13 6 7 1017.2 - 0.0
21/07:30pm 20.7 21.0 17.9 84 1.7 NE 13 15 7 8 1016.9 1016.9 0.0
21/07:00pm 21.0 20.7 17.4 80 2.2 NE 15 19 8 10 1016.6 - 0.0
21/06:30pm 21.2 21.0 16.6 75 2.8 NE 13 17 7 9 1016.2 1016.2 0.0
21/06:00pm 21.9 21.3 15.7 68 3.7 NNE 13 19 7 10 1015.7 1015.7 0.0
21/05:30pm 23.0 22.6 16.1 65 4.2 NNE 13 17 7 9 1015.3 1015.3 0.0
21/05:00pm 23.9 20.6 12.8 49 6.4 ENE 22 28 12 15 1015.2 - 0.0
21/04:30pm 24.4 19.9 11.4 44 7.3 E 26 35 14 19 1015.1 1015.1 0.0
21/04:00pm 24.6 21.5 12.2 46 7.1 ENE 20 24 11 13 1015.1 - 0.0
21/03:30pm 25.0 21.3 11.6 43 7.6 E 22 28 12 15 1015.3 1015.3 0.0
21/03:00pm 25.5 22.6 12.4 44 7.5 E 19 26 10 14 1015.4 1015.4 0.0
21/02:30pm 26.1 23.6 13.6 46 7.4 E 19 24 10 13 1015.7 1015.7 0.0
21/02:00pm 25.4 21.2 11.2 41 8.0 ESE 24 28 13 15 1015.9 - 0.0
21/01:30pm 25.0 21.3 12.6 46 7.1 ESE 24 28 13 15 1016.3 1016.3 0.0
21/01:00pm 25.5 22.0 13.4 47 7.1 E 24 28 13 15 1016.6 - 0.0
21/12:30pm 24.9 23.0 14.1 51 6.4 E 17 20 9 11 1017.1 1017.1 0.0
21/12:00pm 23.2 23.5 16.0 64 4.4 E 9 11 5 6 1017.6 1017.6 0.0
21/11:30am 21.7 22.2 15.5 68 3.7 SE 7 9 4 5 1017.8 1017.8 0.0
21/11:00am 22.0 22.4 16.3 70 3.5 S 9 11 5 6 1018.1 - 0.0
21/10:30am 20.9 21.2 15.9 73 3.0 S 9 13 5 7 1018.3 1018.3 0.0
21/10:00am 19.2 18.8 15.1 77 2.4 S 11 15 6 8 1018.6 - 0.0
21/09:30am 18.2 17.4 16.2 88 1.2 S 15 19 8 10 1018.6 1018.6 0.0
21/09:00am 17.9 17.7 17.6 98 0.2 S 15 17 8 9 1018.4 1018.4 0.2
21/08:30am 17.3 16.5 17.0 98 0.2 S 17 22 9 12 1018.2 1018.2 0.2
21/08:00am 17.0 16.0 16.7 98 0.2 S 17 24 9 13 1017.9 - 0.2
21/07:30am 17.2 16.3 16.9 98 0.2 S 17 20 9 11 1017.8 1017.8 0.2
21/07:00am 17.4 16.9 16.9 97 0.3 S 15 20 8 11 1017.7 - 0.2
21/06:30am 17.3 17.1 16.8 97 0.3 S 13 17 7 9 1017.4 1017.4 0.2
21/06:00am 17.2 16.6 16.7 97 0.3 S 15 17 8 9 1017.2 1017.2 0.2
21/05:30am 17.4 17.3 16.9 97 0.3 S 13 17 7 9 1016.9 1016.9 0.0
21/05:00am 18.1 18.7 17.6 97 0.3 SSE 11 15 6 8 1016.7 - 0.0
21/04:30am 18.3 19.3 17.8 97 0.3 SSE 9 11 5 6 1016.4 1016.4 0.0
21/04:00am 18.5 19.2 18.0 97 0.3 SE 11 15 6 8 1016.2 - 0.0
21/03:30am 18.4 18.7 17.8 96 0.4 SE 13 15 7 8 1016.3 1016.3 0.0
21/03:00am 18.4 18.6 17.6 95 0.5 SE 13 15 7 8 1016.4 1016.4 0.0
21/02:30am 18.4 18.5 17.4 94 0.6 SE 13 17 7 9 1016.5 1016.5 0.0
21/02:00am 18.3 17.5 17.1 93 0.7 SSE 17 20 9 11 1016.6 - 0.0
21/01:30am 18.5 18.1 17.2 92 0.8 SSE 15 17 8 9 1016.8 1016.8 0.0
21/01:00am 18.4 18.2 16.7 90 1.0 SSE 13 15 7 8 1017.0 - 0.0
21/12:30am 18.6 18.5 16.9 90 1.0 S 13 15 7 8 1017.0 1017.0 0.0
21/12:00am 19.8 21.1 18.5 92 0.8 SSE 9 11 5 6 1017.0 1017.0 0.0
 
Date/Time
CST
Temp
°C
App
Temp
°C
Dew
Point
Rel
Hum
%
Delta-T
°C
Wind Press
QNH
hPa
Press
MSL
hPa
Rain
since 9 am
mm
Dir
 
Spd
km/h
Gust
km/h
Spd
kts
Gust
kts
20/11:30pm 19.7 21.3 18.2 91 0.9 E 7 9 4 5 1017.0 1017.0 0.0
20/11:00pm 20.1 21.0 18.4 90 1.1 NE 11 15 6 8 1016.9 - 0.0
20/10:30pm 20.1 20.8 18.0 88 1.3 NE 11 15 6 8 1016.8 1016.8 0.0
20/10:00pm 20.2 20.4 17.6 85 1.6 NE 13 15 7 8 1016.8 - 0.0
20/09:30pm 20.2 19.9 16.4 79 2.3 NE 13 15 7 8 1016.8 1016.8 0.0
20/09:00pm 20.4 19.6 15.0 71 3.2 NE 13 17 7 9 1016.6 1016.6 0.0
20/08:30pm 20.6 18.4 13.3 63 4.2 ENE 17 20 9 11 1016.4 1016.4 0.0
20/08:00pm 20.7 18.7 12.7 60 4.5 ENE 15 20 8 11 1016.3 - 0.0
20/07:30pm 20.8 18.6 12.2 58 4.8 ENE 15 17 8 9 1016.1 1016.1 0.0
20/07:00pm 21.1 18.8 11.7 55 5.2 ENE 15 17 8 9 1015.9 - 0.0
20/06:30pm 21.6 18.6 10.7 50 6.0 ENE 17 20 9 11 1015.7 1015.7 0.0
20/06:00pm 21.9 19.5 11.3 51 5.9 ENE 15 17 8 9 1015.4 1015.4 0.0
20/05:30pm 22.9 20.4 11.0 47 6.6 ENE 15 17 8 9 1015.1 1015.1 0.0
20/05:00pm 23.7 20.7 10.7 44 7.2 ENE 17 22 9 12 1014.9 - 0.0
20/04:30pm 24.4 20.9 10.3 41 7.8 ENE 19 24 10 13 1014.8 1014.8 0.0
20/04:00pm 24.7 20.8 9.4 38 8.3 E 20 26 11 14 1014.6 - 0.0
20/03:30pm 24.9 20.9 9.2 37 8.5 E 20 26 11 14 1014.5 1014.5 0.0
20/03:00pm 25.4 21.8 10.4 39 8.3 E 20 28 11 15 1014.7 1014.7 0.0
20/02:30pm 25.0 22.0 10.5 40 8.1 E 17 20 9 11 1014.9 1014.9 0.0
20/02:00pm 25.4 21.4 10.4 39 8.3 E 22 28 12 15 1015.2 - 0.0
20/01:30pm 25.1 20.1 9.4 37 8.6 ESE 26 32 14 17 1015.7 1015.7 0.0
20/01:00pm 24.8 18.6 7.9 34 9.0 ESE 30 35 16 19 1016.3 - 0.0
20/12:30pm 24.5 17.6 7.2 33 9.0 E 33 41 18 22 1016.7 1016.7 0.0
20/12:00pm 24.1 18.6 7.7 35 8.6 E 26 32 14 17 1017.3 1017.3 0.0
20/11:30am 23.1 18.7 8.8 40 7.6 ESE 22 26 12 14 1017.6 1017.6 0.0

Other Formats:

Comma delimited format used in spreadsheet applications
http://www.bom.gov.au/fwo/IDD60801/IDD60801.94248.axf

JavaScript Object Notation format (JSON) in row-major order
http://www.bom.gov.au/fwo/IDD60801/IDD60801.94248.json